createdAt,value
2023-04-02T00:02:33.478Z,6.41
2023-04-02T00:07:38.652Z,6.40
2023-04-02T00:13:01.046Z,6.39
2023-04-02T00:18:06.743Z,6.34
2023-04-02T00:23:13.495Z,6.36
2023-04-02T00:28:22.074Z,6.35
2023-04-02T00:33:30.117Z,6.37
2023-04-02T00:38:36.057Z,6.29
2023-04-02T00:43:50.979Z,6.29
2023-04-02T00:49:00.209Z,6.32
2023-04-02T00:54:08.288Z,6.29
2023-04-02T00:59:24.485Z,6.20
2023-04-02T01:04:34.593Z,6.25
2023-04-02T01:09:55.034Z,6.29
2023-04-02T01:15:10.142Z,6.30
2023-04-02T01:20:40.422Z,6.31
2023-04-02T01:25:50.212Z,6.25
2023-04-02T01:30:58.808Z,6.24
2023-04-02T01:36:10.315Z,6.28
2023-04-02T01:41:23.122Z,6.38
2023-04-02T01:46:32.365Z,6.37
2023-04-02T01:57:11.176Z,6.25
2023-04-02T02:02:17.908Z,6.18
2023-04-02T02:07:23.590Z,6.26
2023-04-02T02:12:31.602Z,6.21
2023-04-02T02:17:38.214Z,6.20
2023-04-02T02:22:46.568Z,6.14
2023-04-02T02:27:59.603Z,6.32
2023-04-02T02:33:16.553Z,6.46
2023-04-02T02:38:33.128Z,6.31
2023-04-02T02:43:48.798Z,6.33
2023-04-02T02:48:56.450Z,6.35
2023-04-02T02:54:06.596Z,6.21
2023-04-02T02:59:17.069Z,6.16
2023-04-02T03:04:24.843Z,6.11
2023-04-02T03:09:43.387Z,6.06
2023-04-02T03:14:54.766Z,6.05
2023-04-02T03:20:06.964Z,6.01
2023-04-02T03:25:26.249Z,6.12
2023-04-02T03:30:39.678Z,6.32
2023-04-02T03:35:55.331Z,6.54
2023-04-02T03:41:05.964Z,6.71
2023-04-02T03:46:23.703Z,6.54
2023-04-02T03:51:35.262Z,6.48
2023-04-02T03:56:41.103Z,6.57
2023-04-02T04:01:55.373Z,6.56
2023-04-02T04:07:03.405Z,6.60
2023-04-02T04:12:19.861Z,6.86
2023-04-02T04:17:34.918Z,6.75
2023-04-02T04:22:42.749Z,6.57
2023-04-02T04:28:06.036Z,6.48
2023-04-02T04:33:23.377Z,6.30
2023-04-02T04:38:39.411Z,6.04
2023-04-02T04:43:51.384Z,5.79
2023-04-02T04:48:59.045Z,5.38
2023-04-02T04:54:07.218Z,5.19
2023-04-02T04:59:19.989Z,5.12
2023-04-02T05:04:32.508Z,5.27
2023-04-02T05:09:42.811Z,5.23
2023-04-02T05:14:55.598Z,5.22
2023-04-02T05:20:06.364Z,5.19
2023-04-02T05:25:19.711Z,5.21
2023-04-02T05:30:53.847Z,5.66
2023-04-02T05:36:04.391Z,5.78
2023-04-02T05:41:23.636Z,5.83
2023-04-02T05:46:32.838Z,5.82
2023-04-02T05:51:45.146Z,5.84
2023-04-02T05:56:57.540Z,6.30
2023-04-02T06:02:06.576Z,6.30
2023-04-02T06:07:21.282Z,6.32
2023-04-02T06:12:39.672Z,6.51
2023-04-02T06:17:49.610Z,6.66
2023-04-02T06:22:58.841Z,6.97
2023-04-02T06:28:07.781Z,7.35
2023-04-02T06:33:13.822Z,7.60
2023-04-02T06:38:27.667Z,7.78
2023-04-02T06:43:39.076Z,8.04
2023-04-02T06:49:14.482Z,8.83
2023-04-02T06:54:20.603Z,8.89
2023-04-02T06:59:32.844Z,9.08
2023-04-02T07:04:39.769Z,9.49
2023-04-02T07:09:44.336Z,9.78
2023-04-02T07:14:50.365Z,9.92
2023-04-02T07:19:56.037Z,9.70
2023-04-02T07:25:01.351Z,9.58
2023-04-02T07:30:09.131Z,9.90
2023-04-02T07:35:13.993Z,10.42
2023-04-02T07:40:21.630Z,10.71
2023-04-02T07:45:28.688Z,10.90
2023-04-02T07:50:33.361Z,11.12
2023-04-02T07:55:37.769Z,11.70
2023-04-02T08:00:43.756Z,11.39
2023-04-02T08:05:53.157Z,11.62
2023-04-02T08:10:57.293Z,12.13
2023-04-02T08:16:03.056Z,12.31
2023-04-02T08:21:09.212Z,12.71
2023-04-02T08:26:18.918Z,12.65
2023-04-02T08:31:24.906Z,12.43
2023-04-02T08:36:32.124Z,12.80
2023-04-02T08:41:39.227Z,13.83
2023-04-02T08:46:49.738Z,13.04
2023-04-02T08:51:54.480Z,13.24
2023-04-02T08:57:04.580Z,13.24
2023-04-02T09:02:31.051Z,13.60
2023-04-02T09:07:36.129Z,13.75
2023-04-02T09:12:43.722Z,13.76
2023-04-02T09:17:54.114Z,14.05
2023-04-02T09:22:58.989Z,13.61
2023-04-02T09:28:05.975Z,14.06
2023-04-02T09:33:12.798Z,14.16
2023-04-02T09:38:24.867Z,14.34
2023-04-02T09:43:32.343Z,13.84
2023-04-02T09:48:41.115Z,14.32
2023-04-02T09:53:46.380Z,14.69
2023-04-02T09:59:05.251Z,14.67
2023-04-02T10:04:38.864Z,14.64
2023-04-02T10:09:43.579Z,15.05
2023-04-02T10:14:50.848Z,15.13
2023-04-02T10:20:00.801Z,14.41
2023-04-02T10:25:14.345Z,14.24
2023-04-02T10:30:24.501Z,13.51
2023-04-02T10:35:46.916Z,13.34
2023-04-02T10:40:59.840Z,13.70
2023-04-02T10:46:11.176Z,14.45
2023-04-02T10:51:29.840Z,14.18
2023-04-02T10:56:47.911Z,14.39
2023-04-02T11:07:31.220Z,15.29
2023-04-02T11:12:42.201Z,15.58
2023-04-02T11:17:48.074Z,15.30
2023-04-02T11:23:15.070Z,15.63
2023-04-02T11:28:35.175Z,15.87
2023-04-02T11:33:45.636Z,16.18
2023-04-02T11:39:01.869Z,16.07
2023-04-02T11:44:27.623Z,16.29
2023-04-02T11:49:42.330Z,16.53
2023-04-02T11:54:59.587Z,16.52
2023-04-02T12:00:20.923Z,16.43
2023-04-02T12:05:37.094Z,16.39
2023-04-02T12:10:58.101Z,16.85
2023-04-02T12:16:02.271Z,16.43
2023-04-02T12:21:06.757Z,16.12
2023-04-02T12:26:27.848Z,16.03
2023-04-02T12:31:33.635Z,16.48
2023-04-02T12:36:40.481Z,16.73
2023-04-02T12:41:46.075Z,16.73
2023-04-02T12:46:51.574Z,16.39
2023-04-02T12:51:56.402Z,16.64
2023-04-02T12:57:49.086Z,17.23
2023-04-02T13:03:02.158Z,17.04
2023-04-02T13:08:07.290Z,16.98
2023-04-02T13:13:39.386Z,17.44
2023-04-02T13:18:47.470Z,17.56
2023-04-02T13:23:51.775Z,17.23
2023-04-02T13:29:01.281Z,17.04
2023-04-02T13:34:07.194Z,17.34
2023-04-02T13:39:11.352Z,17.30
2023-04-02T13:44:25.118Z,17.19
2023-04-02T13:49:31.667Z,17.30
2023-04-02T13:54:44.809Z,17.50
2023-04-02T13:59:48.892Z,17.58
2023-04-02T14:05:03.721Z,17.84
2023-04-02T14:10:22.217Z,17.46
2023-04-02T14:15:39.641Z,16.91
2023-04-02T14:20:55.497Z,17.10
2023-04-02T14:26:11.612Z,17.75
2023-04-02T14:31:23.660Z,17.86
2023-04-02T14:36:37.765Z,18.03
2023-04-02T14:41:50.938Z,18.42
2023-04-02T14:47:02.269Z,18.58
2023-04-02T14:52:14.280Z,18.55
2023-04-02T14:57:23.640Z,18.89
2023-04-02T15:02:38.219Z,18.71
2023-04-02T15:07:52.476Z,18.67
2023-04-02T15:13:00.109Z,18.41
2023-04-02T15:18:04.491Z,18.01
2023-04-02T15:23:20.601Z,17.63
2023-04-02T15:28:30.176Z,16.98
2023-04-02T15:33:45.165Z,16.89
2023-04-02T15:38:57.213Z,16.91
2023-04-02T15:44:10.997Z,17.14
2023-04-02T15:49:34.803Z,16.95
2023-04-02T15:54:54.235Z,17.14
2023-04-02T16:00:13.154Z,17.23
2023-04-02T16:05:28.973Z,16.93
2023-04-02T16:10:42.361Z,15.97
2023-04-02T16:15:53.535Z,15.59
2023-04-02T16:21:02.327Z,15.09
2023-04-02T16:26:28.891Z,14.70
2023-04-02T16:31:40.189Z,14.40
2023-04-02T16:36:56.491Z,14.38
2023-04-02T16:42:12.817Z,13.69
2023-04-02T16:47:30.945Z,13.66
2023-04-02T16:52:44.302Z,13.75
2023-04-02T16:57:57.192Z,13.70
2023-04-02T17:03:20.412Z,13.44
2023-04-02T17:08:26.810Z,13.39
2023-04-02T17:13:40.472Z,13.52
2023-04-02T17:18:49.454Z,13.36
2023-04-02T17:23:57.278Z,13.22
2023-04-02T17:29:10.372Z,12.98
2023-04-02T17:34:17.023Z,12.96
2023-04-02T17:39:25.701Z,12.95
2023-04-02T17:44:46.522Z,12.86
2023-04-02T17:50:12.083Z,12.82
2023-04-02T17:55:32.757Z,12.47
2023-04-02T18:00:54.000Z,12.29
2023-04-02T18:06:06.021Z,12.07
2023-04-02T18:11:15.021Z,12.02
2023-04-02T18:16:38.148Z,11.54
2023-04-02T18:21:52.086Z,11.66
2023-04-02T18:27:07.810Z,11.44
2023-04-02T18:32:43.115Z,11.13
2023-04-02T18:38:02.812Z,11.19
2023-04-02T18:43:10.265Z,11.29
2023-04-02T18:48:28.587Z,11.47
2023-04-02T18:53:35.133Z,11.22
2023-04-02T18:58:51.921Z,11.10
2023-04-02T19:04:07.016Z,11.17
2023-04-02T19:09:18.003Z,10.90
2023-04-02T19:14:23.505Z,11.14
2023-04-02T19:19:30.942Z,10.92
2023-04-02T19:24:51.351Z,10.86
2023-04-02T19:30:12.410Z,10.68
2023-04-02T19:35:24.119Z,10.29
2023-04-02T19:40:42.176Z,10.39
2023-04-02T19:45:50.771Z,9.95
2023-04-02T19:50:56.938Z,9.57
2023-04-02T19:56:02.373Z,9.33
2023-04-02T20:01:08.885Z,9.52
2023-04-02T20:06:17.277Z,9.16
2023-04-02T20:11:22.811Z,9.45
2023-04-02T20:16:27.263Z,9.47
2023-04-02T20:21:38.434Z,9.42
2023-04-02T20:26:42.818Z,9.18
2023-04-02T20:31:46.860Z,9.28
2023-04-02T20:36:52.363Z,8.89
2023-04-02T20:42:00.962Z,8.36
2023-04-02T20:47:05.152Z,7.93
2023-04-02T20:52:10.961Z,8.05
2023-04-02T20:57:15.157Z,8.02
2023-04-02T21:02:19.294Z,7.90
2023-04-02T21:07:24.811Z,8.09
2023-04-02T21:12:29.342Z,7.56
2023-04-02T21:17:33.720Z,7.62
2023-04-02T21:22:39.253Z,8.04
2023-04-02T21:27:43.434Z,8.03
2023-04-02T21:32:51.132Z,7.91
2023-04-02T21:37:57.091Z,7.55
2023-04-02T21:43:01.333Z,7.29
2023-04-02T21:48:06.939Z,7.33
2023-04-02T21:53:12.684Z,7.56
2023-04-02T21:58:16.754Z,7.37
2023-04-02T22:03:30.978Z,7.38
2023-04-02T22:08:37.895Z,7.14
2023-04-02T22:13:42.998Z,6.97
2023-04-02T22:18:47.548Z,6.75
2023-04-02T22:23:53.814Z,6.68
2023-04-02T22:28:58.578Z,6.95
2023-04-02T22:34:04.260Z,6.90
2023-04-02T22:39:12.588Z,6.71
2023-04-02T22:44:18.118Z,6.71
2023-04-02T22:49:22.240Z,6.81
2023-04-02T22:54:29.697Z,6.87
2023-04-02T23:05:02.697Z,7.00
2023-04-02T23:10:09.043Z,6.94
2023-04-02T23:15:13.541Z,6.58
2023-04-02T23:20:18.085Z,6.38
2023-04-02T23:25:23.767Z,6.45
2023-04-02T23:30:27.943Z,6.32
2023-04-02T23:35:32.119Z,6.28
2023-04-02T23:40:38.651Z,6.37
2023-04-02T23:45:43.195Z,6.46
2023-04-02T23:50:47.356Z,6.46
2023-04-02T23:55:53.246Z,6.41
